Arrange by
Date
Date
Title
Job #
Location
Descending   Sign Up for Job Agent Sign-up for Job Agent Jobs through RSS RSS Feed
Date Title Job # Location
04/01/2020 Security Engineer : 20-01109 20-01109 Portland, Oregon
04/01/2020 Senior Developer : 20-01104 20-01104 Portland, Oregon
04/01/2020 Senior Network and System Administrator : 20-01026 20-01026 Santa Clara, California
04/01/2020 Communication & Change Manager : 20-0110 20-01010 Boulder, Colorado
04/01/2020 Copywriter : 20-00816 20-00816 San Jose, California
04/01/2020 Senior Data Integration Analyst : 19-05436 19-05436 Sunnyvale, California
04/01/2020 Senior Business Intelligence Analysts: 19-05432 19-05432 Sunnyvale, California
04/01/2020 Receptionist : 19-04617 19-04617 Scotts Valley, California
04/01/2020 EBS Developer : 20-00958 20-00958 Minneapolis, Minnesota
04/01/2020 Data Analyst : 20-00953 20-00953 San Jose, California
04/01/2020 Senior Network Engineer : 20-00822 20-00822 Austin, Texas
04/01/2020 Software/Data Engineer : 20-01108 20-01108 Norcross, Georgia
04/01/2020 Front End Developer IV : 20-00966 20-00966 Mountain View CA, California
04/01/2020 Digital Product Manager : 20-00944 20-00944 Charlotte, North Carolina
04/01/2020 Content Programmer (Non-Payrolled) : 20-00932 20-00932 Irvine, California
04/01/2020 Full Stack Developer : 20-00939 20-00939 Sunnyvale, California
04/01/2020 Guidewire Policy Center Developer I : 20-00907 20-00907 Oklahoma City, Oklahoma
04/01/2020 Associate Digital Strategist : 20-00851 20-00851 Palo Alto, California
04/01/2020 Mid Level Backend Engineer : 20-00796 20-00796 Santa Monica, California
04/01/2020 Software Development Engineer II : 20-00758 20-00758 San Jose, California
04/01/2020 Account Manager - US Staffing Services : 19-05032 20-00734 Raleigh, North Carolina
04/01/2020 Strategic Sourcing/Supply Chain Analyst : 20-00688 20-00688 San Francisco, California
04/01/2020 Relationship Advisor : 20-01107 20-01107 Tempe, Arizona
04/01/2020 Project Management Support lll : 20-01105 20-01105 San Jose, California
04/01/2020 BTA Change Management Lead IV: 20-01103 20-01103 Palo Alto, California
04/01/2020 SAFe Agile Coach : 20-01106 20-01106 Woodland Hills, California
04/01/2020 Training Program Lead (Instructional Designer) : 20-00786 20-00786 San Mateo, California
04/01/2020 Relationship Associate (Customer Service) : 20-00779 20-00779 Santa Rosa, California
04/01/2020 Mid Level React Native engineer : 20-00797 20-00797 Santa Monica, California
04/01/2020 Data Analyst : 20-00776 20-00776 Westborough, Massachusetts
Page:  1 2 3 4 5 6 7 Next     | 1 to 30 of 186 result(s)     records per page